Wetterdaten: Woche 26.05.14 - 01.06.14 (KW22)
Datum Zeit Temp. A. Feuchte A. Luftdruck Regen Wind Richtung Sonnenschein ET UV Solar Taupunkt Windchill Windben
26.05.2014 00:00 14,8 C 66 % 1017,5 hPa 0,0 l/m 3,9 km/h (1 Bft) O-NO 0,00 h 0,051 mm 0,0 UV-I 0 W/m 8,6 C 14,8 C 8,2 km/h (2 Bft)
26.05.2014 01:00 15,2 C 68 % 1017,3 hPa 0,0 l/m 5,2 km/h (1 Bft) O-NO 0,00 h 0,051 mm 0,0 UV-I 0 W/m 9,4 C 15,0 C 9,9 km/h (2 Bft)
26.05.2014 02:00 14,7 C 73 % 1017,0 hPa 0,0 l/m 6,6 km/h (2 Bft) O-NO 0,00 h 0,051 mm 0,0 UV-I 0 W/m 9,8 C 14,1 C 12,1 km/h (2 Bft)
26.05.2014 03:00 14,8 C 74 % 1016,5 hPa 0,0 l/m 9,1 km/h (2 Bft) O-NO 0,00 h 0,025 mm 0,0 UV-I 0 W/m 10,2 C 13,3 C 15,8 km/h (3 Bft)
26.05.2014 04:00 14,6 C 76 % 1015,9 hPa 0,0 l/m 5,3 km/h (1 Bft) NO 0,00 h 0,000 mm 0,0 UV-I 0 W/m 10,4 C 14,4 C 10,7 km/h (2 Bft)
26.05.2014 05:00 14,4 C 77 % 1015,4 hPa 0,0 l/m 3,8 km/h (1 Bft) N 0,00 h 0,025 mm 0,0 UV-I 11 W/m 10,4 C 14,4 C 7,4 km/h (2 Bft)
26.05.2014 06:00 14,4 C 78 % 1015,3 hPa 0,0 l/m 4,0 km/h (1 Bft) N 0,00 h 0,025 mm 0,0 UV-I 27 W/m 10,6 C 14,4 C 6,9 km/h (2 Bft)
26.05.2014 07:00 16,1 C 73 % 1015,3 hPa 0,0 l/m 4,4 km/h (1 Bft) O-NO 0,67 h 0,025 mm 1,0 UV-I 225 W/m 11,3 C 15,8 C 8,2 km/h (2 Bft)
26.05.2014 08:00 18,2 C 67 % 1015,2 hPa 0,0 l/m 4,8 km/h (1 Bft) O 1,00 h 0,152 mm 1,9 UV-I 478 W/m 12,0 C 17,9 C 9,7 km/h (2 Bft)
26.05.2014 09:00 19,6 C 61 % 1015,0 hPa 0,0 l/m 9,7 km/h (2 Bft) O 1,00 h 0,279 mm 2,7 UV-I 538 W/m 12,0 C 18,3 C 17,2 km/h (3 Bft)
26.05.2014 10:00 20,3 C 57 % 1014,5 hPa 0,0 l/m 10,1 km/h (2 Bft) O 1,00 h 0,330 mm 4,1 UV-I 555 W/m 11,5 C 19,0 C 18,3 km/h (3 Bft)
26.05.2014 11:00 22,2 C 48 % 1014,0 hPa 0,0 l/m 10,7 km/h (2 Bft) O 1,00 h 0,381 mm 6,1 UV-I 842 W/m 10,5 C 20,9 C 19,6 km/h (3 Bft)
26.05.2014 12:00 22,4 C 44 % 1013,5 hPa 0,0 l/m 10,0 km/h (2 Bft) O-NO 1,00 h 0,584 mm 5,3 UV-I 603 W/m 9,4 C 21,3 C 18,0 km/h (3 Bft)
26.05.2014 13:00 22,6 C 44 % 1012,9 hPa 0,0 l/m 9,3 km/h (2 Bft) O-NO 1,00 h 0,457 mm 5,1 UV-I 567 W/m 9,7 C 21,7 C 16,2 km/h (3 Bft)
26.05.2014 14:00 23,3 C 42 % 1012,1 hPa 0,0 l/m 8,9 km/h (2 Bft) O-NO 1,00 h 0,457 mm 5,2 UV-I 604 W/m 9,7 C 22,5 C 15,3 km/h (3 Bft)
26.05.2014 15:00 24,2 C 43 % 1011,1 hPa 0,0 l/m 9,9 km/h (2 Bft) O-NO 1,00 h 0,457 mm 5,1 UV-I 744 W/m 10,7 C 23,3 C 17,0 km/h (3 Bft)
26.05.2014 16:00 23,7 C 43 % 1010,1 hPa 0,0 l/m 9,2 km/h (2 Bft) O-NO 1,00 h 0,559 mm 3,5 UV-I 620 W/m 10,5 C 22,9 C 16,9 km/h (3 Bft)
26.05.2014 17:00 23,2 C 42 % 1009,7 hPa 0,0 l/m 9,0 km/h (2 Bft) O-NO 1,00 h 0,457 mm 1,9 UV-I 336 W/m 9,7 C 22,4 C 16,0 km/h (3 Bft)
26.05.2014 18:00 21,9 C 48 % 1009,6 hPa 0,0 l/m 7,1 km/h (2 Bft) O-NO 1,00 h 0,279 mm 0,8 UV-I 120 W/m 10,4 C 21,4 C 12,6 km/h (3 Bft)
26.05.2014 19:00 20,8 C 52 % 1009,4 hPa 0,0 l/m 7,9 km/h (2 Bft) O 0,88 h 0,127 mm 0,5 UV-I 79 W/m 10,4 C 20,1 C 13,6 km/h (3 Bft)
26.05.2014 20:00 19,7 C 56 % 1009,2 hPa 0,0 l/m 4,0 km/h (1 Bft) O-NO 0,00 h 0,102 mm 0,0 UV-I 20 W/m 10,5 C 19,6 C 8,0 km/h (2 Bft)
26.05.2014 21:00 18,4 C 61 % 1009,5 hPa 0,0 l/m 4,0 km/h (1 Bft) O-NO 0,00 h 0,051 mm 0,0 UV-I 0 W/m 10,6 C 18,1 C 7,4 km/h (2 Bft)
26.05.2014 22:00 15,5 C 84 % 1010,1 hPa 2,4 l/m 5,4 km/h (1 Bft) SW 0,00 h 0,025 mm 0,0 UV-I 0 W/m 12,8 C 15,2 C 8,6 km/h (2 Bft)
26.05.2014 23:00 14,3 C 93 % 1009,4 hPa 0,6 l/m 3,3 km/h (1 Bft) N 0,00 h 0,025 mm 0,0 UV-I 0 W/m 13,2 C 14,3 C 5,8 km/h (2 Bft)
27.05.2014 00:00 14,0 C 94 % 1008,9 hPa 0,0 l/m 0,6 km/h (0 Bft) NO 0,00 h 0,000 mm 0,0 UV-I 0 W/m 13,1 C 14,0 C 1,9 km/h (1 Bft)
27.05.2014 01:00 14,1 C 94 % 1008,2 hPa 0,2 l/m 0,7 km/h (0 Bft) N 0,00 h 0,000 mm 0,0 UV-I 0 W/m 13,2 C 14,1 C 1,9 km/h (1 Bft)
27.05.2014 02:00 14,0 C 95 % 1007,9 hPa 2,2 l/m 1,1 km/h (1 Bft) S 0,00 h 0,000 mm 0,0 UV-I 0 W/m 13,3 C 14,0 C 2,1 km/h (1 Bft)
27.05.2014 03:00 14,1 C 95 % 1007,7 hPa 0,0 l/m 1,4 km/h (1 Bft) W 0,00 h 0,000 mm 0,0 UV-I 0 W/m 13,3 C 14,1 C 2,9 km/h (1 Bft)
27.05.2014 04:00 14,0 C 96 % 1007,2 hPa 0,0 l/m 0,4 km/h (0 Bft) W 0,00 h 0,000 mm 0,0 UV-I 0 W/m 13,4 C 14,0 C 1,3 km/h (1 Bft)
27.05.2014 05:00 13,9 C 96 % 1007,0 hPa 0,0 l/m 1,0 km/h (0 Bft) S-SW 0,00 h 0,000 mm 0,0 UV-I 9 W/m 13,3 C 13,9 C 2,0 km/h (1 Bft)
27.05.2014 06:00 13,5 C 95 % 1007,3 hPa 0,2 l/m 1,8 km/h (1 Bft) S 0,00 h 0,000 mm 0,0 UV-I 22 W/m 12,8 C 13,5 C 3,4 km/h (1 Bft)
27.05.2014 07:00 13,6 C 95 % 1007,2 hPa 0,0 l/m 1,3 km/h (1 Bft) W-SW 0,57 h 0,000 mm 0,5 UV-I 56 W/m 12,8 C 13,6 C 2,6 km/h (1 Bft)
27.05.2014 08:00 14,3 C 94 % 1007,2 hPa 0,0 l/m 3,4 km/h (1 Bft) SW 1,00 h 0,025 mm 0,8 UV-I 148 W/m 13,4 C 14,3 C 5,6 km/h (1 Bft)
27.05.2014 09:00 15,2 C 91 % 1007,4 hPa 0,0 l/m 4,3 km/h (1 Bft) S 1,00 h 0,076 mm 1,6 UV-I 252 W/m 13,7 C 15,2 C 6,8 km/h (2 Bft)
27.05.2014 10:00 15,5 C 88 % 1007,6 hPa 0,2 l/m 5,1 km/h (1 Bft) W-SW 1,00 h 0,127 mm 1,2 UV-I 170 W/m 13,5 C 15,4 C 7,8 km/h (2 Bft)
27.05.2014 11:00 15,4 C 87 % 1007,8 hPa 0,0 l/m 5,5 km/h (1 Bft) W-SW 1,00 h 0,102 mm 1,4 UV-I 163 W/m 13,2 C 15,1 C 9,0 km/h (2 Bft)
27.05.2014 12:00 16,1 C 84 % 1007,8 hPa 0,0 l/m 10,3 km/h (2 Bft) W-SW 1,00 h 0,102 mm 4,1 UV-I 490 W/m 13,4 C 14,3 C 15,4 km/h (3 Bft)
27.05.2014 13:00 17,3 C 75 % 1007,6 hPa 0,0 l/m 9,2 km/h (2 Bft) W 1,00 h 0,279 mm 4,5 UV-I 470 W/m 12,8 C 16,0 C 14,0 km/h (3 Bft)
27.05.2014 14:00 17,2 C 74 % 1007,6 hPa 0,0 l/m 9,2 km/h (2 Bft) W-SW 1,00 h 0,279 mm 2,8 UV-I 302 W/m 12,6 C 15,9 C 13,3 km/h (3 Bft)
27.05.2014 15:00 18,2 C 70 % 1007,2 hPa 0,0 l/m 10,2 km/h (2 Bft) W-SW 1,00 h 0,203 mm 3,8 UV-I 482 W/m 12,6 C 16,6 C 14,9 km/h (3 Bft)
27.05.2014 16:00 18,0 C 70 % 1007,0 hPa 0,0 l/m 9,2 km/h (2 Bft) W-NW 1,00 h 0,305 mm 2,0 UV-I 236 W/m 12,5 C 16,8 C 13,9 km/h (3 Bft)
27.05.2014 17:00 17,1 C 74 % 1007,2 hPa 0,0 l/m 9,9 km/h (2 Bft) W 1,00 h 0,178 mm 1,0 UV-I 152 W/m 12,4 C 15,6 C 15,0 km/h (3 Bft)
27.05.2014 18:00 16,5 C 76 % 1007,2 hPa 0,0 l/m 11,3 km/h (2 Bft) W-NW 1,00 h 0,127 mm 0,7 UV-I 105 W/m 12,3 C 14,4 C 17,2 km/h (3 Bft)
27.05.2014 19:00 15,8 C 78 % 1007,4 hPa 0,0 l/m 9,7 km/h (2 Bft) W 0,70 h 0,102 mm 0,5 UV-I 75 W/m 12,0 C 14,1 C 15,5 km/h (3 Bft)
27.05.2014 20:00 15,3 C 81 % 1007,3 hPa 0,0 l/m 9,2 km/h (2 Bft) W-NW 0,00 h 0,076 mm 0,0 UV-I 9 W/m 11,9 C 13,8 C 14,5 km/h (3 Bft)
27.05.2014 21:00 14,8 C 81 % 1008,0 hPa 0,0 l/m 7,1 km/h (2 Bft) W 0,00 h 0,025 mm 0,0 UV-I 0 W/m 11,6 C 14,1 C 11,0 km/h (2 Bft)
27.05.2014 22:00 14,4 C 85 % 1008,0 hPa 0,0 l/m 6,1 km/h (2 Bft) W 0,00 h 0,026 mm 0,0 UV-I 0 W/m 12,0 C 14,1 C 9,5 km/h (2 Bft)
27.05.2014 23:00 13,6 C 91 % 1007,9 hPa 0,6 l/m 3,1 km/h (1 Bft) W 0,00 h 0,025 mm 0,0 UV-I 0 W/m 12,2 C 13,6 C 5,5 km/h (1 Bft)
28.05.2014 00:00 13,3 C 94 % 1007,7 hPa 1,4 l/m 5,6 km/h (1 Bft) W 0,00 h 0,000 mm 0,0 UV-I 0 W/m 12,3 C 13,0 C 8,5 km/h (2 Bft)
28.05.2014 01:00 12,8 C 94 % 1007,6 hPa 0,2 l/m 6,8 km/h (2 Bft) W 0,00 h 0,000 mm 0,0 UV-I 0 W/m 11,8 C 12,3 C 10,5 km/h (2 Bft)
28.05.2014 02:00 12,6 C 95 % 1007,2 hPa 0,6 l/m 5,1 km/h (1 Bft) W-SW 0,00 h 0,000 mm 0,0 UV-I 0 W/m 11,7 C 12,5 C 7,9 km/h (2 Bft)
28.05.2014 03:00 12,5 C 95 % 1006,8 hPa 0,0 l/m 3,7 km/h (1 Bft) W 0,00 h 0,000 mm 0,0 UV-I 0 W/m 11,7 C 12,5 C 6,4 km/h (2 Bft)
28.05.2014 04:00 12,5 C 95 % 1006,6 hPa 0,4 l/m 2,4 km/h (1 Bft) W 0,00 h 0,000 mm 0,0 UV-I 0 W/m 11,7 C 12,5 C 4,5 km/h (1 Bft)
28.05.2014 05:00 12,4 C 95 % 1006,5 hPa 3,4 l/m 2,4 km/h (1 Bft) W 0,00 h 0,000 mm 0,0 UV-I 5 W/m 11,7 C 12,4 C 4,5 km/h (1 Bft)
28.05.2014 06:00 12,3 C 96 % 1006,6 hPa 2,8 l/m 5,4 km/h (1 Bft) W 0,00 h 0,000 mm 0,0 UV-I 13 W/m 11,7 C 12,2 C 8,2 km/h (2 Bft)
28.05.2014 07:00 12,2 C 96 % 1006,8 hPa 1,0 l/m 6,0 km/h (2 Bft) W 0,00 h 0,000 mm 0,0 UV-I 21 W/m 11,6 C 11,8 C 9,4 km/h (2 Bft)
28.05.2014 08:00 12,2 C 96 % 1007,0 hPa 0,8 l/m 5,9 km/h (2 Bft) W 0,45 h 0,025 mm 0,0 UV-I 45 W/m 11,6 C 12,0 C 9,1 km/h (2 Bft)
28.05.2014 09:00 12,4 C 96 % 1007,3 hPa 1,0 l/m 5,9 km/h (2 Bft) W 0,82 h 0,025 mm 0,5 UV-I 57 W/m 11,7 C 12,2 C 9,0 km/h (2 Bft)
28.05.2014 10:00 12,3 C 96 % 1007,7 hPa 1,2 l/m 5,4 km/h (1 Bft) W 0,63 h 0,025 mm 0,6 UV-I 57 W/m 11,6 C 12,0 C 8,4 km/h (2 Bft)
28.05.2014 11:00 12,2 C 96 % 1007,9 hPa 0,2 l/m 6,1 km/h (2 Bft) W 1,00 h 0,025 mm 0,7 UV-I 72 W/m 11,6 C 12,0 C 9,5 km/h (2 Bft)
28.05.2014 12:00 12,3 C 96 % 1008,3 hPa 0,6 l/m 6,4 km/h (2 Bft) W 1,00 h 0,025 mm 0,7 UV-I 79 W/m 11,6 C 11,8 C 10,1 km/h (2 Bft)
28.05.2014 13:00 12,3 C 96 % 1008,7 hPa 0,2 l/m 7,8 km/h (2 Bft) W 1,00 h 0,051 mm 1,0 UV-I 115 W/m 11,6 C 11,2 C 11,9 km/h (2 Bft)
28.05.2014 14:00 12,3 C 95 % 1008,9 hPa 0,2 l/m 8,3 km/h (2 Bft) W 1,00 h 0,051 mm 0,9 UV-I 101 W/m 11,4 C 11,1 C 12,5 km/h (3 Bft)
28.05.2014 15:00 12,2 C 95 % 1009,2 hPa 0,0 l/m 7,5 km/h (2 Bft) W 1,00 h 0,051 mm 0,8 UV-I 90 W/m 11,4 C 11,3 C 11,5 km/h (2 Bft)
28.05.2014 16:00 12,2 C 95 % 1009,5 hPa 0,4 l/m 6,7 km/h (2 Bft) W 0,98 h 0,051 mm 0,6 UV-I 79 W/m 11,4 C 11,7 C 10,4 km/h (2 Bft)
28.05.2014 17:00 12,0 C 96 % 1009,7 hPa 1,6 l/m 7,9 km/h (2 Bft) W-NW 0,87 h 0,051 mm 0,5 UV-I 66 W/m 11,4 C 10,9 C 11,8 km/h (2 Bft)
28.05.2014 18:00 11,8 C 96 % 1010,0 hPa 0,4 l/m 5,4 km/h (1 Bft) W 0,18 h 0,025 mm 0,0 UV-I 36 W/m 11,2 C 11,5 C 8,5 km/h (2 Bft)
28.05.2014 19:00 11,7 C 97 % 1010,3 hPa 0,4 l/m 4,1 km/h (1 Bft) W 0,00 h 0,025 mm 0,0 UV-I 9 W/m 11,2 C 11,7 C 6,4 km/h (2 Bft)
28.05.2014 20:00 11,5 C 97 % 1010,6 hPa 0,2 l/m 3,0 km/h (1 Bft) N-NW 0,00 h 0,000 mm 0,0 UV-I 6 W/m 10,9 C 11,5 C 5,3 km/h (1 Bft)
28.05.2014 21:00 11,2 C 95 % 1011,3 hPa 0,2 l/m 2,9 km/h (1 Bft) N-NW 0,00 h 0,000 mm 0,0 UV-I 0 W/m 10,5 C 11,2 C 5,6 km/h (1 Bft)
28.05.2014 22:00 10,8 C 95 % 1011,7 hPa 0,2 l/m 2,9 km/h (1 Bft) N-NW 0,00 h 0,000 mm 0,0 UV-I 0 W/m 10,1 C 10,8 C 5,1 km/h (1 Bft)
28.05.2014 23:00 10,5 C 96 % 1011,8 hPa 0,0 l/m 2,8 km/h (1 Bft) NW 0,00 h 0,000 mm 0,0 UV-I 0 W/m 9,9 C 10,5 C 4,7 km/h (1 Bft)
29.05.2014 00:00 10,4 C 96 % 1011,9 hPa 0,0 l/m 2,0 km/h (1 Bft) NW 0,00 h 0,000 mm 0,0 UV-I 0 W/m 9,8 C 10,4 C 3,7 km/h (1 Bft)
29.05.2014 01:00 10,3 C 96 % 1011,9 hPa 0,6 l/m 2,4 km/h (1 Bft) NW 0,00 h 0,000 mm 0,0 UV-I 0 W/m 9,7 C 10,3 C 4,5 km/h (1 Bft)
29.05.2014 02:00 10,1 C 96 % 1011,8 hPa 1,4 l/m 4,0 km/h (1 Bft) NW 0,00 h 0,000 mm 0,0 UV-I 0 W/m 9,5 C 10,1 C 6,1 km/h (2 Bft)
29.05.2014 03:00 10,0 C 97 % 1011,6 hPa 0,6 l/m 2,2 km/h (1 Bft) NW 0,00 h 0,000 mm 0,0 UV-I 0 W/m 9,5 C 10,0 C 3,9 km/h (1 Bft)
29.05.2014 04:00 10,0 C 97 % 1011,5 hPa 0,0 l/m 2,8 km/h (1 Bft) NW 0,00 h 0,000 mm 0,0 UV-I 0 W/m 9,5 C 10,0 C 4,7 km/h (1 Bft)
29.05.2014 05:00 10,0 C 97 % 1011,7 hPa 0,2 l/m 3,2 km/h (1 Bft) N-NW 0,00 h 0,000 mm 0,0 UV-I 6 W/m 9,6 C 10,0 C 5,7 km/h (1 Bft)
29.05.2014 06:00 10,1 C 96 % 1012,0 hPa 0,0 l/m 3,8 km/h (1 Bft) N-NW 0,00 h 0,000 mm 0,0 UV-I 17 W/m 9,6 C 10,1 C 6,2 km/h (2 Bft)
29.05.2014 07:00 10,1 C 96 % 1012,2 hPa 0,0 l/m 4,6 km/h (1 Bft) N-NW 0,30 h 0,000 mm 0,0 UV-I 43 W/m 9,4 C 10,0 C 7,0 km/h (2 Bft)
29.05.2014 08:00 10,2 C 95 % 1012,5 hPa 0,6 l/m 4,0 km/h (1 Bft) N-NW 0,93 h 0,025 mm 0,5 UV-I 85 W/m 9,4 C 10,2 C 6,8 km/h (2 Bft)
29.05.2014 09:00 10,4 C 95 % 1012,7 hPa 0,0 l/m 4,8 km/h (1 Bft) N-NW 1,00 h 0,051 mm 0,9 UV-I 130 W/m 9,6 C 10,2 C 8,2 km/h (2 Bft)
29.05.2014 10:00 10,6 C 94 % 1012,9 hPa 0,0 l/m 8,7 km/h (2 Bft) N-NW 1,00 h 0,051 mm 1,5 UV-I 193 W/m 9,6 C 9,0 C 12,6 km/h (3 Bft)
29.05.2014 11:00 11,0 C 90 % 1013,3 hPa 0,0 l/m 7,9 km/h (2 Bft) N-NW 1,00 h 0,102 mm 1,8 UV-I 226 W/m 9,5 C 9,7 C 12,6 km/h (3 Bft)
29.05.2014 12:00 10,8 C 91 % 1013,6 hPa 0,4 l/m 10,6 km/h (2 Bft) N 1,00 h 0,127 mm 2,1 UV-I 260 W/m 9,4 C 8,3 C 15,8 km/h (3 Bft)
29.05.2014 13:00 10,4 C 92 % 1014,0 hPa 0,8 l/m 8,3 km/h (2 Bft) N-NW 1,00 h 0,127 mm 1,9 UV-I 224 W/m 9,3 C 9,0 C 12,8 km/h (3 Bft)
29.05.2014 14:00 10,3 C 92 % 1014,2 hPa 0,4 l/m 10,7 km/h (2 Bft) N 1,00 h 0,102 mm 2,0 UV-I 243 W/m 9,0 C 7,6 C 15,5 km/h (3 Bft)
29.05.2014 15:00 10,0 C 91 % 1014,5 hPa 0,4 l/m 9,4 km/h (2 Bft) N 1,00 h 0,127 mm 1,5 UV-I 189 W/m 8,6 C 8,0 C 14,4 km/h (3 Bft)
29.05.2014 16:00 9,4 C 92 % 1014,9 hPa 0,0 l/m 9,2 km/h (2 Bft) N 1,00 h 0,102 mm 1,1 UV-I 154 W/m 8,2 C 7,5 C 14,1 km/h (3 Bft)
29.05.2014 17:00 8,8 C 91 % 1015,2 hPa 0,0 l/m 9,6 km/h (2 Bft) N 1,00 h 0,076 mm 0,7 UV-I 110 W/m 7,4 C 6,6 C 14,1 km/h (3 Bft)
29.05.2014 18:00 8,2 C 91 % 1015,5 hPa 0,0 l/m 7,9 km/h (2 Bft) N 0,38 h 0,051 mm 0,0 UV-I 49 W/m 6,9 C 6,9 C 12,3 km/h (3 Bft)
29.05.2014 19:00 8,0 C 91 % 1016,1 hPa 0,0 l/m 7,5 km/h (2 Bft) N 0,07 h 0,025 mm 0,0 UV-I 24 W/m 6,6 C 7,0 C 11,0 km/h (2 Bft)
29.05.2014 20:00 7,6 C 92 % 1016,6 hPa 0,0 l/m 6,0 km/h (2 Bft) N 0,00 h 0,025 mm 0,0 UV-I 7 W/m 6,3 C 7,3 C 9,3 km/h (2 Bft)
29.05.2014 21:00 7,4 C 92 % 1017,2 hPa 0,0 l/m 6,1 km/h (2 Bft) N 0,00 h 0,000 mm 0,0 UV-I 0 W/m 6,2 C 7,0 C 9,7 km/h (2 Bft)
29.05.2014 22:00 7,0 C 92 % 1017,6 hPa 0,0 l/m 6,1 km/h (2 Bft) N 0,00 h 0,000 mm 0,0 UV-I 0 W/m 5,8 C 6,1 C 9,6 km/h (2 Bft)
29.05.2014 23:00 6,6 C 91 % 1017,9 hPa 0,0 l/m 7,7 km/h (2 Bft) N 0,00 h 0,000 mm 0,0 UV-I 0 W/m 5,3 C 5,2 C 11,8 km/h (2 Bft)
30.05.2014 00:00 6,6 C 88 % 1018,3 hPa 0,0 l/m 3,3 km/h (1 Bft) N 0,00 h 0,000 mm 0,0 UV-I 0 W/m 4,8 C 6,6 C 5,5 km/h (1 Bft)
30.05.2014 01:00 6,5 C 90 % 1018,3 hPa 0,0 l/m 4,5 km/h (1 Bft) N 0,00 h 0,000 mm 0,0 UV-I 0 W/m 5,0 C 6,4 C 6,9 km/h (2 Bft)
30.05.2014 02:00 6,3 C 91 % 1018,4 hPa 0,0 l/m 3,6 km/h (1 Bft) N-NO 0,00 h 0,000 mm 0,0 UV-I 0 W/m 4,9 C 6,3 C 6,0 km/h (2 Bft)
30.05.2014 03:00 6,2 C 84 % 1018,5 hPa 0,0 l/m 3,1 km/h (1 Bft) N 0,00 h 0,000 mm 0,0 UV-I 0 W/m 3,7 C 6,2 C 5,6 km/h (1 Bft)
30.05.2014 04:00 6,1 C 91 % 1018,5 hPa 0,0 l/m 5,7 km/h (1 Bft) N 0,00 h 0,000 mm 0,0 UV-I 0 W/m 4,7 C 5,8 C 8,0 km/h (2 Bft)
30.05.2014 05:00 5,9 C 93 % 1018,7 hPa 0,0 l/m 4,2 km/h (1 Bft) N 0,00 h 0,000 mm 0,0 UV-I 13 W/m 4,8 C 5,8 C 6,7 km/h (2 Bft)
30.05.2014 06:00 6,1 C 93 % 1019,3 hPa 0,0 l/m 4,2 km/h (1 Bft) N-NO 0,53 h 0,000 mm 0,0 UV-I 54 W/m 5,2 C 6,1 C 6,7 km/h (2 Bft)
30.05.2014 07:00 6,6 C 90 % 1019,7 hPa 0,0 l/m 3,5 km/h (1 Bft) N-NO 1,00 h 0,025 mm 0,6 UV-I 87 W/m 5,1 C 6,6 C 5,8 km/h (2 Bft)
30.05.2014 08:00 7,5 C 88 % 1020,0 hPa 0,0 l/m 4,2 km/h (1 Bft) N 1,00 h 0,051 mm 1,2 UV-I 207 W/m 5,6 C 7,4 C 7,1 km/h (2 Bft)
30.05.2014 09:00 8,7 C 82 % 1020,2 hPa 0,0 l/m 7,1 km/h (2 Bft) NO 1,00 h 0,102 mm 1,8 UV-I 279 W/m 5,9 C 7,9 C 11,3 km/h (2 Bft)
30.05.2014 10:00 9,0 C 81 % 1020,5 hPa 0,0 l/m 8,4 km/h (2 Bft) N-NO 1,00 h 0,127 mm 1,6 UV-I 207 W/m 5,9 C 7,4 C 12,8 km/h (3 Bft)
30.05.2014 11:00 9,4 C 81 % 1020,7 hPa 0,0 l/m 8,2 km/h (2 Bft) N-NO 1,00 h 0,102 mm 2,0 UV-I 224 W/m 6,3 C 7,8 C 12,5 km/h (3 Bft)
30.05.2014 12:00 10,8 C 75 % 1020,9 hPa 0,0 l/m 8,5 km/h (2 Bft) NO 1,00 h 0,127 mm 3,5 UV-I 400 W/m 6,6 C 9,3 C 13,0 km/h (3 Bft)
30.05.2014 13:00 12,2 C 68 % 1020,9 hPa 0,0 l/m 3,9 km/h (1 Bft) N-NO 1,00 h 0,203 mm 3,9 UV-I 478 W/m 6,6 C 12,2 C 7,2 km/h (2 Bft)
30.05.2014 14:00 12,2 C 68 % 1020,9 hPa 0,0 l/m 2,3 km/h (1 Bft) N-NO 1,00 h 0,254 mm 2,6 UV-I 311 W/m 6,4 C 12,2 C 4,5 km/h (1 Bft)
30.05.2014 15:00 12,8 C 66 % 1021,0 hPa 0,0 l/m 3,6 km/h (1 Bft) N 1,00 h 0,178 mm 2,2 UV-I 283 W/m 6,6 C 12,7 C 5,9 km/h (2 Bft)
30.05.2014 16:00 13,7 C 61 % 1020,9 hPa 0,0 l/m 3,1 km/h (1 Bft) NO 1,00 h 0,152 mm 2,2 UV-I 364 W/m 6,3 C 13,7 C 5,5 km/h (1 Bft)
30.05.2014 17:00 13,7 C 60 % 1020,7 hPa 0,0 l/m 3,3 km/h (1 Bft) NO 1,00 h 0,203 mm 1,6 UV-I 227 W/m 6,0 C 13,6 C 5,7 km/h (1 Bft)
30.05.2014 18:00 13,7 C 60 % 1020,6 hPa 0,0 l/m 4,7 km/h (1 Bft) N 1,00 h 0,127 mm 0,7 UV-I 109 W/m 6,0 C 13,5 C 7,9 km/h (2 Bft)
30.05.2014 19:00 12,9 C 63 % 1020,7 hPa 0,0 l/m 5,9 km/h (2 Bft) NW 0,05 h 0,076 mm 0,0 UV-I 33 W/m 6,1 C 12,7 C 8,7 km/h (2 Bft)
30.05.2014 20:00 12,1 C 67 % 1020,9 hPa 0,0 l/m 2,2 km/h (1 Bft) NW 0,00 h 0,051 mm 0,0 UV-I 14 W/m 6,0 C 12,1 C 3,8 km/h (1 Bft)
30.05.2014 21:00 10,6 C 76 % 1021,3 hPa 0,0 l/m 5,4 km/h (1 Bft) N 0,00 h 0,025 mm 0,0 UV-I 0 W/m 6,6 C 10,4 C 8,7 km/h (2 Bft)
30.05.2014 22:00 9,5 C 81 % 1021,6 hPa 0,0 l/m 2,0 km/h (1 Bft) N 0,00 h 0,025 mm 0,0 UV-I 0 W/m 6,4 C 9,5 C 3,5 km/h (1 Bft)
30.05.2014 23:00 8,0 C 90 % 1021,9 hPa 0,0 l/m 0,0 km/h (0 Bft) N 0,00 h 0,025 mm 0,0 UV-I 0 W/m 6,4 C 8,0 C 0,3 km/h (0 Bft)
31.05.2014 00:00 7,6 C 92 % 1021,9 hPa 0,0 l/m 0,0 km/h (0 Bft) N 0,00 h 0,000 mm 0,0 UV-I 0 W/m 6,4 C 7,6 C 0,3 km/h (0 Bft)
31.05.2014 01:00 7,3 C 94 % 1021,8 hPa 0,0 l/m 0,1 km/h (0 Bft) O-NO 0,00 h 0,000 mm 0,0 UV-I 0 W/m 6,3 C 7,3 C 0,3 km/h (0 Bft)
31.05.2014 02:00 7,3 C 94 % 1021,5 hPa 0,0 l/m 0,1 km/h (0 Bft) S-SO 0,00 h 0,000 mm 0,0 UV-I 0 W/m 6,4 C 7,3 C 0,7 km/h (0 Bft)
31.05.2014 03:00 7,3 C 94 % 1021,3 hPa 0,0 l/m 0,0 km/h (0 Bft) N 0,00 h 0,000 mm 0,0 UV-I 0 W/m 6,4 C 7,3 C 0,1 km/h (0 Bft)
31.05.2014 04:00 6,7 C 95 % 1021,1 hPa 0,0 l/m 0,2 km/h (0 Bft) S 0,00 h 0,000 mm 0,0 UV-I 0 W/m 6,1 C 6,7 C 0,4 km/h (0 Bft)
31.05.2014 05:00 6,5 C 96 % 1021,0 hPa 0,0 l/m 0,0 km/h (0 Bft) N 0,00 h 0,000 mm 0,0 UV-I 19 W/m 5,9 C 6,5 C 0,1 km/h (0 Bft)
31.05.2014 06:00 7,2 C 95 % 1021,2 hPa 0,0 l/m 0,1 km/h (0 Bft) S-SO 0,85 h 0,000 mm 0,5 UV-I 61 W/m 6,5 C 7,2 C 0,6 km/h (0 Bft)
31.05.2014 07:00 9,2 C 90 % 1021,2 hPa 0,0 l/m 0,5 km/h (0 Bft) NW 1,00 h 0,025 mm 0,8 UV-I 215 W/m 7,6 C 9,2 C 1,5 km/h (1 Bft)
31.05.2014 08:00 11,7 C 82 % 1021,2 hPa 0,0 l/m 2,0 km/h (1 Bft) NW 1,00 h 0,102 mm 1,6 UV-I 300 W/m 8,7 C 11,7 C 4,0 km/h (1 Bft)
31.05.2014 09:00 14,4 C 67 % 1021,1 hPa 0,0 l/m 5,4 km/h (1 Bft) N-NO 1,00 h 0,152 mm 2,5 UV-I 423 W/m 8,3 C 14,0 C 8,9 km/h (2 Bft)
31.05.2014 10:00 14,6 C 61 % 1021,0 hPa 0,0 l/m 5,7 km/h (1 Bft) N-NO 1,00 h 0,254 mm 2,7 UV-I 320 W/m 7,2 C 14,4 C 8,5 km/h (2 Bft)
31.05.2014 11:00 16,1 C 56 % 1020,7 hPa 0,0 l/m 7,5 km/h (2 Bft) N 1,00 h 0,204 mm 4,6 UV-I 524 W/m 7,3 C 15,3 C 11,3 km/h (2 Bft)
31.05.2014 12:00 18,2 C 47 % 1020,3 hPa 0,0 l/m 9,0 km/h (2 Bft) NW 1,00 h 0,330 mm 6,6 UV-I 942 W/m 6,6 C 17,0 C 12,9 km/h (3 Bft)
31.05.2014 13:00 17,8 C 45 % 1020,0 hPa 0,0 l/m 8,6 km/h (2 Bft) N 1,00 h 0,559 mm 5,5 UV-I 640 W/m 5,7 C 16,7 C 13,3 km/h (3 Bft)
31.05.2014 14:00 19,6 C 43 % 1019,5 hPa 0,0 l/m 10,1 km/h (2 Bft) N 1,00 h 0,432 mm 6,2 UV-I 835 W/m 6,7 C 18,2 C 14,7 km/h (3 Bft)
31.05.2014 15:00 20,0 C 42 % 1019,1 hPa 0,0 l/m 10,0 km/h (2 Bft) N 1,00 h 0,559 mm 5,2 UV-I 803 W/m 6,6 C 18,7 C 15,7 km/h (3 Bft)
31.05.2014 16:00 19,6 C 39 % 1018,8 hPa 0,0 l/m 9,3 km/h (2 Bft) N 1,00 h 0,533 mm 3,4 UV-I 648 W/m 5,4 C 18,5 C 14,6 km/h (3 Bft)
31.05.2014 17:00 18,0 C 43 % 1018,8 hPa 0,0 l/m 10,3 km/h (2 Bft) N 1,00 h 0,457 mm 1,7 UV-I 253 W/m 5,3 C 16,3 C 15,7 km/h (3 Bft)
31.05.2014 18:00 17,3 C 45 % 1018,6 hPa 0,0 l/m 6,3 km/h (2 Bft) N 0,93 h 0,229 mm 0,9 UV-I 74 W/m 5,3 C 16,8 C 9,9 km/h (2 Bft)
31.05.2014 19:00 16,4 C 48 % 1018,6 hPa 0,0 l/m 5,9 km/h (2 Bft) N 0,00 h 0,102 mm 0,0 UV-I 32 W/m 5,4 C 16,1 C 9,5 km/h (2 Bft)
31.05.2014 20:00 15,2 C 54 % 1018,7 hPa 0,0 l/m 2,8 km/h (1 Bft) N 0,00 h 0,076 mm 0,0 UV-I 14 W/m 5,9 C 15,2 C 4,6 km/h (1 Bft)
31.05.2014 21:00 12,8 C 66 % 1019,0 hPa 0,0 l/m 0,1 km/h (0 Bft) N 0,00 h 0,025 mm 0,0 UV-I 0 W/m 6,7 C 12,8 C 0,6 km/h (0 Bft)
31.05.2014 22:00 10,5 C 81 % 1019,4 hPa 0,0 l/m 0,1 km/h (0 Bft) O-NO 0,00 h 0,000 mm 0,0 UV-I 0 W/m 7,3 C 10,5 C 0,3 km/h (0 Bft)
31.05.2014 23:00 9,0 C 87 % 1019,5 hPa 0,0 l/m 0,1 km/h (0 Bft) O-NO 0,00 h 0,025 mm 0,0 UV-I 0 W/m 6,9 C 9,0 C 0,4 km/h (0 Bft)
01.06.2014 00:00 7,7 C 90 % 1019,5 hPa 0,0 l/m 0,3 km/h (0 Bft) O-NO 0,00 h 0,000 mm 0,0 UV-I 0 W/m 6,2 C 7,7 C 0,8 km/h (0 Bft)
01.06.2014 01:00 6,9 C 92 % 1019,5 hPa 0,0 l/m 0,1 km/h (0 Bft) O-NO 0,00 h 0,000 mm 0,0 UV-I 0 W/m 5,6 C 6,9 C 0,2 km/h (0 Bft)
01.06.2014 02:00 6,0 C 93 % 1019,4 hPa 0,0 l/m 0,0 km/h (0 Bft) N 0,00 h 0,000 mm 0,0 UV-I 0 W/m 5,0 C 6,0 C 0,1 km/h (0 Bft)
01.06.2014 03:00 5,6 C 94 % 1019,4 hPa 0,0 l/m 0,2 km/h (0 Bft) O-NO 0,00 h 0,000 mm 0,0 UV-I 0 W/m 4,7 C 5,6 C 1,0 km/h (0 Bft)
01.06.2014 04:00 4,9 C 94 % 1019,3 hPa 0,0 l/m 0,0 km/h (0 Bft) N 0,00 h 0,000 mm 0,0 UV-I 0 W/m 4,0 C 4,9 C 0,0 km/h (0 Bft)
01.06.2014 05:00 4,7 C 95 % 1019,5 hPa 0,0 l/m 0,0 km/h (0 Bft) O-NO 0,08 h 0,000 mm 0,0 UV-I 26 W/m 4,0 C 4,7 C 0,3 km/h (0 Bft)
01.06.2014 06:00 6,5 C 94 % 1019,6 hPa 0,0 l/m 0,1 km/h (0 Bft) S 1,00 h 0,000 mm 0,0 UV-I 74 W/m 5,6 C 6,5 C 0,6 km/h (0 Bft)
01.06.2014 07:00 8,3 C 91 % 1019,5 hPa 0,0 l/m 0,1 km/h (0 Bft) S-SW 1,00 h 0,025 mm 0,7 UV-I 122 W/m 6,9 C 8,3 C 1,0 km/h (0 Bft)
01.06.2014 08:00 11,5 C 77 % 1019,5 hPa 0,0 l/m 6,0 km/h (2 Bft) N 1,00 h 0,051 mm 1,5 UV-I 263 W/m 7,5 C 10,7 C 8,8 km/h (2 Bft)
01.06.2014 09:00 14,4 C 66 % 1019,5 hPa 0,0 l/m 5,3 km/h (1 Bft) N-NO 1,00 h 0,152 mm 3,0 UV-I 571 W/m 8,0 C 14,2 C 8,3 km/h (2 Bft)
01.06.2014 10:00 16,3 C 55 % 1019,2 hPa 0,0 l/m 3,5 km/h (1 Bft) N 1,00 h 0,305 mm 4,4 UV-I 702 W/m 7,3 C 16,2 C 6,4 km/h (2 Bft)
01.06.2014 11:00 17,0 C 51 % 1019,1 hPa 0,0 l/m 5,7 km/h (1 Bft) N-NW 1,00 h 0,406 mm 4,2 UV-I 658 W/m 6,9 C 16,7 C 8,8 km/h (2 Bft)
01.06.2014 12:00 16,7 C 52 % 1019,1 hPa 0,0 l/m 8,0 km/h (2 Bft) NW 1,00 h 0,381 mm 3,3 UV-I 441 W/m 6,7 C 15,7 C 11,6 km/h (2 Bft)
01.06.2014 13:00 16,7 C 50 % 1019,1 hPa 0,0 l/m 6,6 km/h (2 Bft) NW 1,00 h 0,279 mm 3,6 UV-I 416 W/m 6,1 C 16,2 C 10,5 km/h (2 Bft)
01.06.2014 14:00 16,6 C 47 % 1019,0 hPa 0,0 l/m 7,5 km/h (2 Bft) NW 1,00 h 0,279 mm 2,4 UV-I 281 W/m 5,3 C 15,8 C 11,0 km/h (2 Bft)
01.06.2014 15:00 16,9 C 48 % 1018,8 hPa 0,0 l/m 4,5 km/h (1 Bft) N 1,00 h 0,203 mm 2,5 UV-I 312 W/m 5,7 C 16,7 C 7,5 km/h (2 Bft)
01.06.2014 16:00 17,1 C 47 % 1018,7 hPa 0,0 l/m 4,9 km/h (1 Bft) N-NW 1,00 h 0,203 mm 2,2 UV-I 347 W/m 5,7 C 16,8 C 7,8 km/h (2 Bft)
01.06.2014 17:00 17,1 C 46 % 1018,4 hPa 0,0 l/m 5,1 km/h (1 Bft) N 1,00 h 0,229 mm 1,7 UV-I 274 W/m 5,4 C 16,9 C 8,4 km/h (2 Bft)
01.06.2014 18:00 17,0 C 46 % 1018,2 hPa 0,0 l/m 6,9 km/h (2 Bft) N-NW 1,00 h 0,179 mm 0,9 UV-I 91 W/m 5,4 C 16,4 C 10,3 km/h (2 Bft)
01.06.2014 19:00 15,9 C 50 % 1018,2 hPa 0,0 l/m 5,6 km/h (1 Bft) N-NO 0,10 h 0,102 mm 0,0 UV-I 41 W/m 5,5 C 15,6 C 8,6 km/h (2 Bft)
01.06.2014 20:00 14,4 C 55 % 1018,4 hPa 0,0 l/m 3,4 km/h (1 Bft) N-NO 0,00 h 0,076 mm 0,0 UV-I 17 W/m 5,4 C 14,4 C 6,0 km/h (2 Bft)
01.06.2014 21:00 12,3 C 68 % 1018,8 hPa 0,0 l/m 0,7 km/h (0 Bft) O 0,00 h 0,025 mm 0,0 UV-I 6 W/m 6,5 C 12,3 C 1,4 km/h (1 Bft)
01.06.2014 22:00 10,0 C 81 % 1019,0 hPa 0,0 l/m 0,5 km/h (0 Bft) O-NO 0,00 h 0,000 mm 0,0 UV-I 0 W/m 6,9 C 10,0 C 1,2 km/h (1 Bft)
01.06.2014 23:00 8,5 C 87 % 1019,4 hPa 0,0 l/m 0,1 km/h (0 Bft) O 0,00 h 0,025 mm 0,0 UV-I 0 W/m 6,4 C 8,5 C 0,3 km/h (0 Bft)
Min-Datum _ 01.06.14 31.05.14 28.05.14 - 26.05.14 - - - - - 30.05.14 29.05.14 26.05.14
_ Min-Zeit 05:12 16:45 04:51 - 05:12 - - - - - 03:06 23:22 21:09
Minimum _ 4,2 C 35 % 1006,4 hPa - 0,0 km/h (0 Bft) - - - - - 3,3 C 2,1 C 0,0 km/h (0 Bft)
Max-Datum _ 26.05.14 28.05.14 30.05.14 28.05.14 26.05.14 - 31.05.14 26.05.14 27.05.14 01.06.14 27.05.14 26.05.14 26.05.14
_ Max-Zeit 15:21 18:24 23:31 05:07 10:34 - 09:21 12:00 12:42 13:33 12:45 15:33 11:46
Maximum _ 24,7 C 97 % 1022,0 hPa 3,4 l/m 19,3 km/h
O (3 Bft)
- 0,08 h 0,584 mm 8,3 UV-I 1234 W/m 14,6 C 24,7 C 35,4 km/h
O-NO (5 Bft)
Durchschnitt _ 12,9 C 79 % 1014,7 hPa #29,2 l/m 5,0 km/h (1 Bft) N #82:59 h #17,290 mm 2,3 UV-I 233 W/m 8,8 C 12,4 C 8,2 km/h (2 Bft)